Norient Star — 9HRV9 — position and weather

sailwx.info

Track history (hours):
 
Tides and Currents Weather Stations Pressure Air Temp Water Temp Dewpoint Dewpoint Depression Visibility Wind Speed Wind Dir Waves Ship Positions

Norient Star

Last reported at 2017-Mar-27 13:33 UTC. Time now 2017-Mar-27 14:28 UTC.
Position N 51°16' E 004°21'.

Length 180 m; draft 8.3 m.

Type: Ship. MMSI: 249434000.

Date/timePositionNaut miles runAvg speedWind from/ knotsBaromVisibWave heightAir tempDewpointWater temp
2017-Mar-27 13:33N 51°16' E 004°21'0 0.0
2017-Mar-27 12:29N 51°16' E 004°21'0 0.0
2017-Mar-27 11:33N 51°16' E 004°21'0 0.0
2017-Mar-27 10:29N 51°16' E 004°21'0 0.0
2017-Mar-27 09:33N 51°16' E 004°21'0 0.0
2017-Mar-27 08:30N 51°16' E 004°21'0 0.0
2017-Mar-27 07:30N 51°16' E 004°21'0 0.0
2017-Mar-27 06:30N 51°16' E 004°21'0 0.0
2017-Mar-27 05:30N 51°16' E 004°21'0 0.0
2017-Mar-27 04:33N 51°16' E 004°21'2 2.0
2017-Mar-27 03:34N 51°15' E 004°23'1 0.9
2017-Mar-27 02:31N 51°16' E 004°24'0 0.0
2017-Mar-27 01:28N 51°16' E 004°24'0 0.0
2017-Mar-27 00:28N 51°16' E 004°24'0 0.0
2017-Mar-26 23:31N 51°16' E 004°24'0 0.0
2017-Mar-26 22:25N 51°16' E 004°24'0 0.0
2017-Mar-26 21:31N 51°16' E 004°24'0 0.0
2017-Mar-26 20:31N 51°16' E 004°24'0 0.0
2017-Mar-26 19:31N 51°16' E 004°24'0 0.0
2017-Mar-26 18:28N 51°16' E 004°24'0 0.0
2017-Mar-26 17:31N 51°16' E 004°24'0 0.0
2017-Mar-26 16:31N 51°16' E 004°24'0 0.0
2017-Mar-26 15:31N 51°16' E 004°24'0 0.0
2017-Mar-26 14:28N 51°16' E 004°24'0 0.0
2017-Mar-26 13:31N 51°16' E 004°24'1 1.1
2017-Mar-26 12:33N 51°15' E 004°24'3 2.9
2017-Mar-26 11:29N 51°16' E 004°20'0 0.1
2017-Mar-26 10:33N 51°16' E 004°20'0 0.0
2017-Mar-26 09:29N 51°16' E 004°20'0 0.0
2017-Mar-26 08:33N 51°16' E 004°20'0 0.0
2017-Mar-26 07:33N 51°16' E 004°20'0 0.0
2017-Mar-26 06:33N 51°16' E 004°20'0 0.0
2017-Mar-26 05:29N 51°16' E 004°20'0 0.0
2017-Mar-26 04:33N 51°16' E 004°20'0 0.0
2017-Mar-26 03:33N 51°16' E 004°20'0 0.0
2017-Mar-26 02:29N 51°16' E 004°20'0 0.0
2017-Mar-26 01:29N 51°16' E 004°20'0 0.0
2017-Mar-26 00:15N 51°16' E 004°20'0 0.0
2017-Mar-25 23:29N 51°16' E 004°20'0 0.0
2017-Mar-25 22:33N 51°16' E 004°20'0 0.0
2017-Mar-25 21:29N 51°16' E 004°20'0 0.0
2017-Mar-25 20:33N 51°16' E 004°20'0 0.0
2017-Mar-25 19:33N 51°16' E 004°20'0 0.0
2017-Mar-25 18:33N 51°16' E 004°20'0 0.0
2017-Mar-25 17:33N 51°16' E 004°20'0 0.0
2017-Mar-25 16:33N 51°16' E 004°20'0 0.0
2017-Mar-25 15:27N 51°16' E 004°20'0 0.0
2017-Mar-25 14:33N 51°16' E 004°20'0 0.0
2017-Mar-25 13:33N 51°16' E 004°20'0 0.0
2017-Mar-25 12:33N 51°16' E 004°20'0 0.0
2017-Mar-25 11:29N 51°16' E 004°20'0 0.0
2017-Mar-25 10:33N 51°16' E 004°20'0 0.0
2017-Mar-25 09:27N 51°16' E 004°20'1 0.7
2017-Mar-25 08:34N 51°17' E 004°21'4 3.5
2017-Mar-25 07:33N 51°20' E 004°18'1 1.0
2017-Mar-25 06:32N 51°21' E 004°17'4 4.1
2017-Mar-25 05:33N 51°23' E 004°13'9 7.0
2017-Mar-25 04:21N 51°26' E 003°60'7 8.8
2017-Mar-25 03:33N 51°21' E 003°52'8 8.3
2017-Mar-25 02:33N 51°26' E 003°41'8 7.7
2017-Mar-25 01:33N 51°25' E 003°29'1010.2
2017-Mar-25 00:34N 51°24' E 003°13'1111.0
2017-Mar-24 23:33N 51°22' E 002°56'8 7.9
2017-Mar-24 22:34N 51°24' E 002°43'4 4.0
2017-Mar-24 21:30N 51°26' E 002°37'0 0.0
2017-Mar-24 20:30N 51°26' E 002°37'0 0.0
2017-Mar-24 19:33N 51°26' E 002°37'0 0.0
2017-Mar-24 18:33N 51°26' E 002°37'0 0.0
2017-Mar-24 17:33N 51°26' E 002°37'0 0.0
2017-Mar-24 16:33N 51°26' E 002°37'0 0.0
2017-Mar-24 15:33N 51°26' E 002°37'1 1.0
2017-Mar-24 14:33N 51°25' E 002°36'7 7.4
2017-Mar-24 13:33N 51°21' E 002°26'1111.4
2017-Mar-24 12:33N 51°15' E 002°10'1211.7
2017-Mar-24 11:33N 51°09' E 001°54'1312.7
2017-Mar-24 10:33N 51°01' E 001°38'6412.3
2017-Mar-24 05:24N 50°22' E 000°19'1113.0
2017-Mar-24 04:33N 50°19' E 000°03'1312.8
2017-Mar-24 03:33N 50°16' W 000°17'1313.0
2017-Mar-24 02:33N 50°12' W 000°36'1212.3
2017-Mar-24 01:33N 50°09' W 000°55'1111.2
2017-Mar-24 00:33N 50°07' W 001°12'1010.0
2017-Mar-23 23:33N 50°04' W 001°27'9 8.9
2017-Mar-23 22:33N 50°01' W 001°40'8 8.3
2017-Mar-23 21:33N 49°59' W 001°52'9 8.7
2017-Mar-23 20:33N 49°57' W 002°06'5310.6
2017-Mar-23 15:33N 49°38' W 003°22'7512.2
2017-Mar-23 09:24N 48°60' W 005°01'1011.5
2017-Mar-23 08:33N 48°55' W 005°14'1211.3
2017-Mar-23 07:30N 48°49' W 005°30'71 8.9
2017-Mar-22 23:33N 47°40' W 005°13'6811.0
2017-Mar-22 17:23N 47°05' W 003°47'911.1
2017-Mar-22 16:32N 47°04' W 003°34'1111.3
2017-Mar-22 15:33N 47°03' W 003°17'1211.9
2017-Mar-22 14:32N 47°02' W 002°60'1111.5
2017-Mar-22 13:32N 47°01' W 002°43'1111.7
2017-Mar-22 12:33N 47°05' W 002°27'10 9.7
2017-Mar-22 11:33N 47°12' W 002°17'10 8.9
2017-Mar-22 10:26N 47°18' W 002°06'0 0.4
2017-Mar-22 09:26N 47°18' W 002°05'0 0.0
2017-Mar-22 08:32N 47°18' W 002°05'0 0.0
2017-Mar-22 07:32N 47°18' W 002°05'0 0.0
2017-Mar-22 06:32N 47°18' W 002°05'0 0.0
2017-Mar-22 05:26N 47°18' W 002°05'0 0.0
2017-Mar-22 04:26N 47°18' W 002°05'0 0.0
2017-Mar-22 03:32N 47°18' W 002°05'0 0.0
2017-Mar-22 02:32N 47°18' W 002°05'0 0.0
2017-Mar-22 01:32N 47°18' W 002°05'0 0.0
2017-Mar-22 00:32N 47°18' W 002°05'0 0.0
2017-Mar-21 23:32N 47°18' W 002°05'0 0.0
2017-Mar-21 22:29N 47°18' W 002°05'0 0.0
2017-Mar-21 21:32N 47°18' W 002°05'0 0.0
2017-Mar-21 20:32N 47°18' W 002°05'0 0.0
2017-Mar-21 19:32N 47°18' W 002°05'0 0.0
2017-Mar-21 18:32N 47°18' W 002°05'0 0.0
2017-Mar-21 17:29N 47°18' W 002°05'0 0.0
2017-Mar-21 16:23N 47°18' W 002°05'0 0.0
2017-Mar-21 15:26N 47°18' W 002°05'0 0.0
2017-Mar-21 14:32N 47°18' W 002°05'0 0.0
2017-Mar-21 13:17N 47°18' W 002°05'0 0.0
2017-Mar-21 12:29N 47°18' W 002°05'0 0.0
2017-Mar-21 11:32N 47°18' W 002°05'0 0.0
2017-Mar-21 10:29N 47°18' W 002°05'0 0.0
2017-Mar-21 09:29N 47°18' W 002°05'0 0.0
2017-Mar-21 08:32N 47°18' W 002°05'0 0.0
2017-Mar-21 07:29N 47°18' W 002°05'0 0.0
2017-Mar-21 06:32N 47°18' W 002°05'0 0.0
2017-Mar-21 05:26N 47°18' W 002°05'0 0.0
2017-Mar-21 04:32N 47°18' W 002°05'0 0.0
2017-Mar-21 03:20N 47°18' W 002°05'0 0.0
2017-Mar-21 02:29N 47°18' W 002°05'0 0.0
2017-Mar-21 01:26N 47°18' W 002°05'0 0.0
2017-Mar-21 00:26N 47°18' W 002°05'0 0.0
2017-Mar-20 23:22N 47°18' W 002°05'0 0.0
2017-Mar-20 22:25N 47°18' W 002°05'0 0.0
2017-Mar-20 21:31N 47°18' W 002°05'0 0.0
2017-Mar-20 20:31N 47°18' W 002°05'0 0.0
2017-Mar-20 19:28N 47°18' W 002°05'0 0.0
2017-Mar-20 18:31N 47°18' W 002°05'0 0.0
2017-Mar-20 17:31N 47°18' W 002°05'0 0.0
2017-Mar-20 16:31N 47°18' W 002°05'0 0.0
2017-Mar-20 15:31N 47°18' W 002°05'0 0.0
2017-Mar-20 14:31N 47°18' W 002°05'0 0.0
2017-Mar-20 13:31N 47°18' W 002°05'0 0.0
2017-Mar-20 12:25N 47°18' W 002°05'0 0.0
2017-Mar-20 11:31N 47°18' W 002°05'0 0.0
2017-Mar-20 10:19N 47°18' W 002°05'0 0.0
2017-Mar-20 09:31N 47°18' W 002°05'0 0.0
2017-Mar-20 08:31N 47°18' W 002°05'0 0.0
2017-Mar-20 07:31N 47°18' W 002°05'0 0.0
2017-Mar-20 06:33N 47°18' W 002°05'0 0.2
2017-Mar-20 05:33N 47°18' W 002°06'10 9.8
2017-Mar-20 04:33N 47°12' W 002°17'8 7.8
2017-Mar-20 03:33N 47°06' W 002°24'1 1.3
2017-Mar-20 02:32N 47°07' W 002°26'0 0.0
2017-Mar-20 01:32N 47°07' W 002°26'0 0.2
2017-Mar-20 00:29N 47°06' W 002°26'0 0.1
2017-Mar-19 23:32N 47°06' W 002°26'0 0.0
2017-Mar-19 22:32N 47°06' W 002°26'0 0.0
2017-Mar-19 21:32N 47°06' W 002°26'0 0.0
2017-Mar-19 20:32N 47°06' W 002°26'0 0.0
2017-Mar-19 19:29N 47°06' W 002°26'0 0.0
2017-Mar-19 18:32N 47°06' W 002°26'0 0.0
2017-Mar-19 17:32N 47°06' W 002°26'0 0.0
2017-Mar-19 16:32N 47°06' W 002°26'0 0.0
2017-Mar-19 15:32N 47°06' W 002°26'0 0.1
2017-Mar-19 14:32N 47°06' W 002°26'0 0.0
2017-Mar-19 13:32N 47°06' W 002°26'0 0.0
2017-Mar-19 12:29N 47°06' W 002°26'0 0.0
2017-Mar-19 11:32N 47°06' W 002°26'0 0.0
2017-Mar-19 10:29N 47°06' W 002°26'0 0.0
2017-Mar-19 09:32N 47°06' W 002°26'0 0.0
2017-Mar-19 08:29N 47°06' W 002°26'0 0.0
2017-Mar-19 07:32N 47°06' W 002°26'0 0.0
2017-Mar-19 06:32N 47°06' W 002°26'0 0.0
2017-Mar-19 05:32N 47°06' W 002°26'0 0.0
2017-Mar-19 04:32N 47°06' W 002°26'0 0.0
2017-Mar-19 03:32N 47°06' W 002°26'0 0.0
2017-Mar-19 02:32N 47°06' W 002°26'0 0.0
2017-Mar-19 01:32N 47°06' W 002°26'0 0.2
2017-Mar-19 00:32N 47°06' W 002°26'0 0.0
2017-Mar-18 23:32N 47°06' W 002°26'0 0.1
2017-Mar-18 22:32N 47°06' W 002°26'0 0.0
2017-Mar-18 21:32N 47°06' W 002°26'0 0.0
2017-Mar-18 20:32N 47°06' W 002°26'0 0.0
2017-Mar-18 19:32N 47°06' W 002°26'0 0.0
2017-Mar-18 18:32N 47°06' W 002°26'0 0.0
2017-Mar-18 17:32N 47°06' W 002°26'0 0.0
2017-Mar-18 16:32N 47°06' W 002°26'0 0.0
2017-Mar-18 15:32N 47°06' W 002°26'0 0.0
2017-Mar-18 14:32N 47°06' W 002°26'0 0.1
2017-Mar-18 13:32N 47°06' W 002°26'0 0.0
2017-Mar-18 12:32N 47°06' W 002°26'0 0.0
2017-Mar-18 11:29N 47°06' W 002°26'0 0.1
2017-Mar-18 10:29N 47°06' W 002°26'0 0.0
2017-Mar-18 09:32N 47°06' W 002°26'0 0.0
2017-Mar-18 08:32N 47°06' W 002°26'0 0.0
2017-Mar-18 07:32N 47°06' W 002°26'0 0.0
2017-Mar-18 06:29N 47°06' W 002°26'0 0.0
2017-Mar-18 05:32N 47°06' W 002°26'0 0.0
2017-Mar-18 04:32N 47°06' W 002°26'0 0.0
2017-Mar-18 03:23N 47°06' W 002°26'0 0.0
2017-Mar-18 02:26N 47°06' W 002°26'0 0.1
2017-Mar-18 01:32N 47°06' W 002°26'0 0.0
2017-Mar-18 00:32N 47°06' W 002°26'0 0.0
2017-Mar-17 23:32N 47°06' W 002°26'0 0.0
2017-Mar-17 22:32N 47°06' W 002°26'0 0.0
2017-Mar-17 21:32N 47°06' W 002°26'0 0.0
2017-Mar-17 20:32N 47°06' W 002°26'0 0.0
2017-Mar-17 19:32N 47°06' W 002°26'0 0.1
2017-Mar-17 18:32N 47°06' W 002°26'0 0.0
2017-Mar-17 17:32N 47°06' W 002°26'0 0.0
2017-Mar-17 16:32N 47°06' W 002°26'3 3.3
2017-Mar-17 15:33N 47°04' W 002°28'1211.7
2017-Mar-17 14:33N 46°58' W 002°43'1313.2
2017-Mar-17 13:33N 46°49' W 002°57'  
Track history (hours):
 
Tides and Currents Weather Stations Pressure Air Temp Water Temp Dewpoint Dewpoint Depression Visibility Wind Speed Wind Dir Waves Ship Positions

Norient Star

Last reported at 2017-Mar-27 13:33 UTC. Time now 2017-Mar-27 14:28 UTC.
Position N 51°16' E 004°21'.

Length 180 m; draft 8.3 m.

Type: Ship. MMSI: 249434000.

Date/timePositionNaut miles runAvg speedWind from/ knotsBaromVisibWave heightAir tempDewpointWater temp
2017-Mar-27 13:33N 51°16' E 004°21'0 0.0
2017-Mar-27 12:29N 51°16' E 004°21'0 0.0
2017-Mar-27 11:33N 51°16' E 004°21'0 0.0
2017-Mar-27 10:29N 51°16' E 004°21'0 0.0
2017-Mar-27 09:33N 51°16' E 004°21'0 0.0
2017-Mar-27 08:30N 51°16' E 004°21'0 0.0
2017-Mar-27 07:30N 51°16' E 004°21'0 0.0
2017-Mar-27 06:30N 51°16' E 004°21'0 0.0
2017-Mar-27 05:30N 51°16' E 004°21'0 0.0
2017-Mar-27 04:33N 51°16' E 004°21'2 2.0
2017-Mar-27 03:34N 51°15' E 004°23'1 0.9
2017-Mar-27 02:31N 51°16' E 004°24'0 0.0
2017-Mar-27 01:28N 51°16' E 004°24'0 0.0
2017-Mar-27 00:28N 51°16' E 004°24'0 0.0
2017-Mar-26 23:31N 51°16' E 004°24'0 0.0
2017-Mar-26 22:25N 51°16' E 004°24'0 0.0
2017-Mar-26 21:31N 51°16' E 004°24'0 0.0
2017-Mar-26 20:31N 51°16' E 004°24'0 0.0
2017-Mar-26 19:31N 51°16' E 004°24'0 0.0
2017-Mar-26 18:28N 51°16' E 004°24'0 0.0
2017-Mar-26 17:31N 51°16' E 004°24'0 0.0
2017-Mar-26 16:31N 51°16' E 004°24'0 0.0
2017-Mar-26 15:31N 51°16' E 004°24'0 0.0
2017-Mar-26 14:28N 51°16' E 004°24'0 0.0
2017-Mar-26 13:31N 51°16' E 004°24'1 1.1
2017-Mar-26 12:33N 51°15' E 004°24'3 2.9
2017-Mar-26 11:29N 51°16' E 004°20'0 0.1
2017-Mar-26 10:33N 51°16' E 004°20'0 0.0
2017-Mar-26 09:29N 51°16' E 004°20'0 0.0
2017-Mar-26 08:33N 51°16' E 004°20'0 0.0
2017-Mar-26 07:33N 51°16' E 004°20'0 0.0
2017-Mar-26 06:33N 51°16' E 004°20'0 0.0
2017-Mar-26 05:29N 51°16' E 004°20'0 0.0
2017-Mar-26 04:33N 51°16' E 004°20'0 0.0
2017-Mar-26 03:33N 51°16' E 004°20'0 0.0
2017-Mar-26 02:29N 51°16' E 004°20'0 0.0
2017-Mar-26 01:29N 51°16' E 004°20'0 0.0
2017-Mar-26 00:15N 51°16' E 004°20'0 0.0
2017-Mar-25 23:29N 51°16' E 004°20'0 0.0
2017-Mar-25 22:33N 51°16' E 004°20'0 0.0
2017-Mar-25 21:29N 51°16' E 004°20'0 0.0
2017-Mar-25 20:33N 51°16' E 004°20'0 0.0
2017-Mar-25 19:33N 51°16' E 004°20'0 0.0
2017-Mar-25 18:33N 51°16' E 004°20'0 0.0
2017-Mar-25 17:33N 51°16' E 004°20'0 0.0
2017-Mar-25 16:33N 51°16' E 004°20'0 0.0
2017-Mar-25 15:27N 51°16' E 004°20'0 0.0
2017-Mar-25 14:33N 51°16' E 004°20'0 0.0
2017-Mar-25 13:33N 51°16' E 004°20'0 0.0
2017-Mar-25 12:33N 51°16' E 004°20'0 0.0
2017-Mar-25 11:29N 51°16' E 004°20'0 0.0
2017-Mar-25 10:33N 51°16' E 004°20'0 0.0
2017-Mar-25 09:27N 51°16' E 004°20'1 0.7
2017-Mar-25 08:34N 51°17' E 004°21'4 3.5
2017-Mar-25 07:33N 51°20' E 004°18'1 1.0
2017-Mar-25 06:32N 51°21' E 004°17'4 4.1
2017-Mar-25 05:33N 51°23' E 004°13'9 7.0
2017-Mar-25 04:21N 51°26' E 003°60'7 8.8
2017-Mar-25 03:33N 51°21' E 003°52'8 8.3
2017-Mar-25 02:33N 51°26' E 003°41'8 7.7
2017-Mar-25 01:33N 51°25' E 003°29'1010.2
2017-Mar-25 00:34N 51°24' E 003°13'1111.0
2017-Mar-24 23:33N 51°22' E 002°56'8 7.9
2017-Mar-24 22:34N 51°24' E 002°43'4 4.0
2017-Mar-24 21:30N 51°26' E 002°37'0 0.0
2017-Mar-24 20:30N 51°26' E 002°37'0 0.0
2017-Mar-24 19:33N 51°26' E 002°37'0 0.0
2017-Mar-24 18:33N 51°26' E 002°37'0 0.0
2017-Mar-24 17:33N 51°26' E 002°37'0 0.0
2017-Mar-24 16:33N 51°26' E 002°37'0 0.0
2017-Mar-24 15:33N 51°26' E 002°37'1 1.0
2017-Mar-24 14:33N 51°25' E 002°36'7 7.4
2017-Mar-24 13:33N 51°21' E 002°26'1111.4
2017-Mar-24 12:33N 51°15' E 002°10'1211.7
2017-Mar-24 11:33N 51°09' E 001°54'1312.7
2017-Mar-24 10:33N 51°01' E 001°38'6412.3
2017-Mar-24 05:24N 50°22' E 000°19'1113.0
2017-Mar-24 04:33N 50°19' E 000°03'1312.8
2017-Mar-24 03:33N 50°16' W 000°17'1313.0
2017-Mar-24 02:33N 50°12' W 000°36'1212.3
2017-Mar-24 01:33N 50°09' W 000°55'1111.2
2017-Mar-24 00:33N 50°07' W 001°12'1010.0
2017-Mar-23 23:33N 50°04' W 001°27'9 8.9
2017-Mar-23 22:33N 50°01' W 001°40'8 8.3
2017-Mar-23 21:33N 49°59' W 001°52'9 8.7
2017-Mar-23 20:33N 49°57' W 002°06'5310.6
2017-Mar-23 15:33N 49°38' W 003°22'7512.2
2017-Mar-23 09:24N 48°60' W 005°01'1011.5
2017-Mar-23 08:33N 48°55' W 005°14'1211.3
2017-Mar-23 07:30N 48°49' W 005°30'71 8.9
2017-Mar-22 23:33N 47°40' W 005°13'6811.0
2017-Mar-22 17:23N 47°05' W 003°47'911.1
2017-Mar-22 16:32N 47°04' W 003°34'1111.3
2017-Mar-22 15:33N 47°03' W 003°17'1211.9
2017-Mar-22 14:32N 47°02' W 002°60'1111.5
2017-Mar-22 13:32N 47°01' W 002°43'1111.7
2017-Mar-22 12:33N 47°05' W 002°27'10 9.7
2017-Mar-22 11:33N 47°12' W 002°17'10 8.9
2017-Mar-22 10:26N 47°18' W 002°06'0 0.4
2017-Mar-22 09:26N 47°18' W 002°05'0 0.0
2017-Mar-22 08:32N 47°18' W 002°05'0 0.0
2017-Mar-22 07:32N 47°18' W 002°05'0 0.0
2017-Mar-22 06:32N 47°18' W 002°05'0 0.0
2017-Mar-22 05:26N 47°18' W 002°05'0 0.0
2017-Mar-22 04:26N 47°18' W 002°05'0 0.0
2017-Mar-22 03:32N 47°18' W 002°05'0 0.0
2017-Mar-22 02:32N 47°18' W 002°05'0 0.0
2017-Mar-22 01:32N 47°18' W 002°05'0 0.0
2017-Mar-22 00:32N 47°18' W 002°05'0 0.0
2017-Mar-21 23:32N 47°18' W 002°05'0 0.0
2017-Mar-21 22:29N 47°18' W 002°05'0 0.0
2017-Mar-21 21:32N 47°18' W 002°05'0 0.0
2017-Mar-21 20:32N 47°18' W 002°05'0 0.0
2017-Mar-21 19:32N 47°18' W 002°05'0 0.0
2017-Mar-21 18:32N 47°18' W 002°05'0 0.0
2017-Mar-21 17:29N 47°18' W 002°05'0 0.0
2017-Mar-21 16:23N 47°18' W 002°05'0 0.0
2017-Mar-21 15:26N 47°18' W 002°05'0 0.0
2017-Mar-21 14:32N 47°18' W 002°05'0 0.0
2017-Mar-21 13:17N 47°18' W 002°05'0 0.0
2017-Mar-21 12:29N 47°18' W 002°05'0 0.0
2017-Mar-21 11:32N 47°18' W 002°05'0 0.0
2017-Mar-21 10:29N 47°18' W 002°05'0 0.0
2017-Mar-21 09:29N 47°18' W 002°05'0 0.0
2017-Mar-21 08:32N 47°18' W 002°05'0 0.0
2017-Mar-21 07:29N 47°18' W 002°05'0 0.0
2017-Mar-21 06:32N 47°18' W 002°05'0 0.0
2017-Mar-21 05:26N 47°18' W 002°05'0 0.0
2017-Mar-21 04:32N 47°18' W 002°05'0 0.0
2017-Mar-21 03:20N 47°18' W 002°05'0 0.0
2017-Mar-21 02:29N 47°18' W 002°05'0 0.0
2017-Mar-21 01:26N 47°18' W 002°05'0 0.0
2017-Mar-21 00:26N 47°18' W 002°05'0 0.0
2017-Mar-20 23:22N 47°18' W 002°05'0 0.0
2017-Mar-20 22:25N 47°18' W 002°05'0 0.0
2017-Mar-20 21:31N 47°18' W 002°05'0 0.0
2017-Mar-20 20:31N 47°18' W 002°05'0 0.0
2017-Mar-20 19:28N 47°18' W 002°05'0 0.0
2017-Mar-20 18:31N 47°18' W 002°05'0 0.0
2017-Mar-20 17:31N 47°18' W 002°05'0 0.0
2017-Mar-20 16:31N 47°18' W 002°05'0 0.0
2017-Mar-20 15:31N 47°18' W 002°05'0 0.0
2017-Mar-20 14:31N 47°18' W 002°05'0 0.0
2017-Mar-20 13:31N 47°18' W 002°05'0 0.0
2017-Mar-20 12:25N 47°18' W 002°05'0 0.0
2017-Mar-20 11:31N 47°18' W 002°05'0 0.0
2017-Mar-20 10:19N 47°18' W 002°05'0 0.0
2017-Mar-20 09:31N 47°18' W 002°05'0 0.0
2017-Mar-20 08:31N 47°18' W 002°05'0 0.0
2017-Mar-20 07:31N 47°18' W 002°05'0 0.0
2017-Mar-20 06:33N 47°18' W 002°05'0 0.2
2017-Mar-20 05:33N 47°18' W 002°06'10 9.8
2017-Mar-20 04:33N 47°12' W 002°17'8 7.8
2017-Mar-20 03:33N 47°06' W 002°24'1 1.3
2017-Mar-20 02:32N 47°07' W 002°26'0 0.0
2017-Mar-20 01:32N 47°07' W 002°26'0 0.2
2017-Mar-20 00:29N 47°06' W 002°26'0 0.1
2017-Mar-19 23:32N 47°06' W 002°26'0 0.0
2017-Mar-19 22:32N 47°06' W 002°26'0 0.0
2017-Mar-19 21:32N 47°06' W 002°26'0 0.0
2017-Mar-19 20:32N 47°06' W 002°26'0 0.0
2017-Mar-19 19:29N 47°06' W 002°26'0 0.0
2017-Mar-19 18:32N 47°06' W 002°26'0 0.0
2017-Mar-19 17:32N 47°06' W 002°26'0 0.0
2017-Mar-19 16:32N 47°06' W 002°26'0 0.0
2017-Mar-19 15:32N 47°06' W 002°26'0 0.1
2017-Mar-19 14:32N 47°06' W 002°26'0 0.0
2017-Mar-19 13:32N 47°06' W 002°26'0 0.0
2017-Mar-19 12:29N 47°06' W 002°26'0 0.0
2017-Mar-19 11:32N 47°06' W 002°26'0 0.0
2017-Mar-19 10:29N 47°06' W 002°26'0 0.0
2017-Mar-19 09:32N 47°06' W 002°26'0 0.0
2017-Mar-19 08:29N 47°06' W 002°26'0 0.0
2017-Mar-19 07:32N 47°06' W 002°26'0 0.0
2017-Mar-19 06:32N 47°06' W 002°26'0 0.0
2017-Mar-19 05:32N 47°06' W 002°26'0 0.0
2017-Mar-19 04:32N 47°06' W 002°26'0 0.0
2017-Mar-19 03:32N 47°06' W 002°26'0 0.0
2017-Mar-19 02:32N 47°06' W 002°26'0 0.0
2017-Mar-19 01:32N 47°06' W 002°26'0 0.2
2017-Mar-19 00:32N 47°06' W 002°26'0 0.0
2017-Mar-18 23:32N 47°06' W 002°26'0 0.1
2017-Mar-18 22:32N 47°06' W 002°26'0 0.0
2017-Mar-18 21:32N 47°06' W 002°26'0 0.0
2017-Mar-18 20:32N 47°06' W 002°26'0 0.0
2017-Mar-18 19:32N 47°06' W 002°26'0 0.0
2017-Mar-18 18:32N 47°06' W 002°26'0 0.0
2017-Mar-18 17:32N 47°06' W 002°26'0 0.0
2017-Mar-18 16:32N 47°06' W 002°26'0 0.0
2017-Mar-18 15:32N 47°06' W 002°26'0 0.0
2017-Mar-18 14:32N 47°06' W 002°26'0 0.1
2017-Mar-18 13:32N 47°06' W 002°26'0 0.0
2017-Mar-18 12:32N 47°06' W 002°26'0 0.0
2017-Mar-18 11:29N 47°06' W 002°26'0 0.1
2017-Mar-18 10:29N 47°06' W 002°26'0 0.0
2017-Mar-18 09:32N 47°06' W 002°26'0 0.0
2017-Mar-18 08:32N 47°06' W 002°26'0 0.0
2017-Mar-18 07:32N 47°06' W 002°26'0 0.0
2017-Mar-18 06:29N 47°06' W 002°26'0 0.0
2017-Mar-18 05:32N 47°06' W 002°26'0 0.0
2017-Mar-18 04:32N 47°06' W 002°26'0 0.0
2017-Mar-18 03:23N 47°06' W 002°26'0 0.0
2017-Mar-18 02:26N 47°06' W 002°26'0 0.1
2017-Mar-18 01:32N 47°06' W 002°26'0 0.0
2017-Mar-18 00:32N 47°06' W 002°26'0 0.0
2017-Mar-17 23:32N 47°06' W 002°26'0 0.0
2017-Mar-17 22:32N 47°06' W 002°26'0 0.0
2017-Mar-17 21:32N 47°06' W 002°26'0 0.0
2017-Mar-17 20:32N 47°06' W 002°26'0 0.0
2017-Mar-17 19:32N 47°06' W 002°26'0 0.1
2017-Mar-17 18:32N 47°06' W 002°26'0 0.0
2017-Mar-17 17:32N 47°06' W 002°26'0 0.0
2017-Mar-17 16:32N 47°06' W 002°26'3 3.3
2017-Mar-17 15:33N 47°04' W 002°28'1211.7
2017-Mar-17 14:33N 46°58' W 002°43'1313.2
2017-Mar-17 13:33N 46°49' W 002°57'  

Dump ship's entire track history